aviador You're here:

DTTZ Decoded Metar

TOZEUR in TUNISIA
Report Time2018-06-19 08:00:00
UTC Time2018-06-19 08:13:09
Flight Rules vfr VFR
Wind060° at 04 kt
W.Decomp.*RWY 09: 3.4 kt HW 2.1 kt LCW
W.Rank060° ranks 10
Current wind is below 060° avg. (9.0)
Visibility9999 m
Phenomena:N/A
Clouds:Few 033 Hf
Expected CloudBase > 6,000 ft AGL from Temp-Dew spread
CeilingNone
Temp26°C (ISA +12)
Dew Point11°C (39% RH)
AAT24.9°C
QNH1016 hPa
Density Alt1,722 ft
Elevation305 ft
Report Wrong Elevation
Raw Report
METAR DTTZ 190800Z 06004KT 9999 FEW033 26/11 Q1016 NOSIG=####018001709####
SAZZ40 KAWN 190800 RRN

Extra information for DTTZ:More info

Metar Taf Metar & Taf Last 4 Metars F.Rules Stats Wind Profile Meteogram Temp Stats Airport Information Weather charts Add Link Nearby VenuesMetar ALERT Operation Metar Decoded Social comments